sensor_id;sensor_type;location;lat;lon;timestamp;temperature;humidity
9033;DHT22;4551;53.164;8.210;2023-07-13T00:00:58;15.50;99.90
9033;DHT22;4551;53.164;8.210;2023-07-13T00:03:26;15.50;99.90
9033;DHT22;4551;53.164;8.210;2023-07-13T00:05:59;15.50;99.90
9033;DHT22;4551;53.164;8.210;2023-07-13T00:08:29;15.40;99.90
9033;DHT22;4551;53.164;8.210;2023-07-13T00:10:59;15.40;99.90
9033;DHT22;4551;53.164;8.210;2023-07-13T00:13:29;15.40;99.90
9033;DHT22;4551;53.164;8.210;2023-07-13T00:15:57;15.30;99.90
9033;DHT22;4551;53.164;8.210;2023-07-13T00:18:25;15.30;99.90
9033;DHT22;4551;53.164;8.210;2023-07-13T00:20:57;15.20;99.90
9033;DHT22;4551;53.164;8.210;2023-07-13T00:23:31;15.20;99.90
9033;DHT22;4551;53.164;8.210;2023-07-13T00:26:00;15.20;99.90
9033;DHT22;4551;53.164;8.210;2023-07-13T00:28:30;15.20;99.90
9033;DHT22;4551;53.164;8.210;2023-07-13T00:30:58;15.20;99.90
9033;DHT22;4551;53.164;8.210;2023-07-13T00:33:27;15.10;99.90
9033;DHT22;4551;53.164;8.210;2023-07-13T00:35:55;15.10;99.90
9033;DHT22;4551;53.164;8.210;2023-07-13T00:38:24;15.10;99.90
9033;DHT22;4551;53.164;8.210;2023-07-13T00:40:52;15.00;99.90
9033;DHT22;4551;53.164;8.210;2023-07-13T00:43:21;15.00;99.90
9033;DHT22;4551;53.164;8.210;2023-07-13T00:48:37;14.90;99.90
9033;DHT22;4551;53.164;8.210;2023-07-13T00:51:05;14.90;99.90
9033;DHT22;4551;53.164;8.210;2023-07-13T00:53:34;14.90;99.90
9033;DHT22;4551;53.164;8.210;2023-07-13T00:56:02;14.90;99.90
9033;DHT22;4551;53.164;8.210;2023-07-13T00:58:30;14.90;99.90
9033;DHT22;4551;53.164;8.210;2023-07-13T01:00:58;14.80;99.90
9033;DHT22;4551;53.164;8.210;2023-07-13T01:03:26;14.80;99.90
9033;DHT22;4551;53.164;8.210;2023-07-13T01:06:10;14.80;99.90
9033;DHT22;4551;53.164;8.210;2023-07-13T01:08:38;14.80;99.90
9033;DHT22;4551;53.164;8.210;2023-07-13T01:11:07;14.80;99.90
9033;DHT22;4551;53.164;8.210;2023-07-13T01:13:36;14.80;99.90
9033;DHT22;4551;53.164;8.210;2023-07-13T01:16:05;14.70;99.90
9033;DHT22;4551;53.164;8.210;2023-07-13T01:18:40;14.70;99.90
9033;DHT22;4551;53.164;8.210;2023-07-13T01:21:09;14.70;99.90
9033;DHT22;4551;53.164;8.210;2023-07-13T01:23:37;14.60;99.90
9033;DHT22;4551;53.164;8.210;2023-07-13T01:26:05;14.60;99.90
9033;DHT22;4551;53.164;8.210;2023-07-13T01:28:34;14.60;99.90
9033;DHT22;4551;53.164;8.210;2023-07-13T01:31:04;14.60;99.90
9033;DHT22;4551;53.164;8.210;2023-07-13T01:33:32;14.50;99.90
9033;DHT22;4551;53.164;8.210;2023-07-13T01:36:01;14.50;99.90
9033;DHT22;4551;53.164;8.210;2023-07-13T01:38:30;14.50;99.90
9033;DHT22;4551;53.164;8.210;2023-07-13T01:40:58;14.50;99.90
9033;DHT22;4551;53.164;8.210;2023-07-13T01:43:26;14.50;99.90
9033;DHT22;4551;53.164;8.210;2023-07-13T01:45:54;14.50;99.90
9033;DHT22;4551;53.164;8.210;2023-07-13T01:48:42;14.50;99.90
9033;DHT22;4551;53.164;8.210;2023-07-13T01:51:10;14.50;99.90
9033;DHT22;4551;53.164;8.210;2023-07-13T01:53:41;14.50;99.90
9033;DHT22;4551;53.164;8.210;2023-07-13T01:56:09;14.50;99.90
9033;DHT22;4551;53.164;8.210;2023-07-13T01:58:38;14.50;99.90
9033;DHT22;4551;53.164;8.210;2023-07-13T02:01:06;14.50;99.90
9033;DHT22;4551;53.164;8.210;2023-07-13T02:03:34;14.40;99.90
9033;DHT22;4551;53.164;8.210;2023-07-13T02:06:02;14.40;99.90
9033;DHT22;4551;53.164;8.210;2023-07-13T02:08:30;14.40;99.90
9033;DHT22;4551;53.164;8.210;2023-07-13T02:11:00;14.50;99.90
9033;DHT22;4551;53.164;8.210;2023-07-13T02:13:28;14.50;99.90
9033;DHT22;4551;53.164;8.210;2023-07-13T02:15:56;14.50;99.90
9033;DHT22;4551;53.164;8.210;2023-07-13T02:18:24;14.50;99.90
9033;DHT22;4551;53.164;8.210;2023-07-13T02:20:52;14.40;99.90
9033;DHT22;4551;53.164;8.210;2023-07-13T02:23:20;14.40;99.90
9033;DHT22;4551;53.164;8.210;2023-07-13T02:25:48;14.50;99.90
9033;DHT22;4551;53.164;8.210;2023-07-13T02:28:18;14.40;99.90
9033;DHT22;4551;53.164;8.210;2023-07-13T02:30:46;14.40;99.90
9033;DHT22;4551;53.164;8.210;2023-07-13T02:33:14;14.50;99.90
9033;DHT22;4551;53.164;8.210;2023-07-13T02:35:42;14.40;99.90
9033;DHT22;4551;53.164;8.210;2023-07-13T02:38:10;14.40;99.90
9033;DHT22;4551;53.164;8.210;2023-07-13T02:40:38;14.40;99.90
9033;DHT22;4551;53.164;8.210;2023-07-13T02:43:06;14.40;99.90
9033;DHT22;4551;53.164;8.210;2023-07-13T02:45:36;14.40;99.90
9033;DHT22;4551;53.164;8.210;2023-07-13T02:48:04;14.50;99.90
9033;DHT22;4551;53.164;8.210;2023-07-13T02:50:32;14.50;99.90
9033;DHT22;4551;53.164;8.210;2023-07-13T02:53:00;14.50;99.90
9033;DHT22;4551;53.164;8.210;2023-07-13T02:55:28;14.50;99.90
9033;DHT22;4551;53.164;8.210;2023-07-13T02:57:56;14.50;99.90
9033;DHT22;4551;53.164;8.210;2023-07-13T03:00:24;14.50;99.90
9033;DHT22;4551;53.164;8.210;2023-07-13T03:02:54;14.50;99.90
9033;DHT22;4551;53.164;8.210;2023-07-13T03:05:24;14.50;99.90
9033;DHT22;4551;53.164;8.210;2023-07-13T03:07:52;14.50;99.90
9033;DHT22;4551;53.164;8.210;2023-07-13T03:10:20;14.50;99.90
9033;DHT22;4551;53.164;8.210;2023-07-13T03:12:48;14.50;99.90
9033;DHT22;4551;53.164;8.210;2023-07-13T03:15:16;14.50;99.90
9033;DHT22;4551;53.164;8.210;2023-07-13T03:17:44;14.50;99.90
9033;DHT22;4551;53.164;8.210;2023-07-13T03:20:13;14.50;99.90
9033;DHT22;4551;53.164;8.210;2023-07-13T03:22:42;14.50;99.90
9033;DHT22;4551;53.164;8.210;2023-07-13T03:25:10;14.50;99.90
9033;DHT22;4551;53.164;8.210;2023-07-13T03:27:38;14.60;99.90
9033;DHT22;4551;53.164;8.210;2023-07-13T03:30:06;14.60;99.90
9033;DHT22;4551;53.164;8.210;2023-07-13T03:32:34;14.60;99.90
9033;DHT22;4551;53.164;8.210;2023-07-13T03:35:03;14.60;99.90
9033;DHT22;4551;53.164;8.210;2023-07-13T03:37:32;14.60;99.90
9033;DHT22;4551;53.164;8.210;2023-07-13T03:40:00;14.60;99.90
9033;DHT22;4551;53.164;8.210;2023-07-13T03:42:29;14.60;99.90
9033;DHT22;4551;53.164;8.210;2023-07-13T03:44:57;14.60;99.90
9033;DHT22;4551;53.164;8.210;2023-07-13T03:47:25;14.60;99.90
9033;DHT22;4551;53.164;8.210;2023-07-13T03:49:53;14.60;99.90
9033;DHT22;4551;53.164;8.210;2023-07-13T03:52:21;14.60;99.90
9033;DHT22;4551;53.164;8.210;2023-07-13T03:54:50;14.60;99.90
9033;DHT22;4551;53.164;8.210;2023-07-13T03:57:18;14.60;99.90
9033;DHT22;4551;53.164;8.210;2023-07-13T03:59:46;14.60;99.90
9033;DHT22;4551;53.164;8.210;2023-07-13T04:02:14;14.60;99.90
9033;DHT22;4551;53.164;8.210;2023-07-13T04:04:43;14.70;99.90
9033;DHT22;4551;53.164;8.210;2023-07-13T04:07:11;14.70;99.90
9033;DHT22;4551;53.164;8.210;2023-07-13T04:09:39;14.70;99.90
9033;DHT22;4551;53.164;8.210;2023-07-13T04:12:08;14.70;99.90
9033;DHT22;4551;53.164;8.210;2023-07-13T04:14:36;14.70;99.90
9033;DHT22;4551;53.164;8.210;2023-07-13T04:17:05;14.70;99.90
9033;DHT22;4551;53.164;8.210;2023-07-13T04:19:33;14.70;99.90
9033;DHT22;4551;53.164;8.210;2023-07-13T04:22:01;14.70;99.90
9033;DHT22;4551;53.164;8.210;2023-07-13T04:24:29;14.80;99.90
9033;DHT22;4551;53.164;8.210;2023-07-13T04:26:57;14.70;99.90
9033;DHT22;4551;53.164;8.210;2023-07-13T04:29:27;14.80;99.90
9033;DHT22;4551;53.164;8.210;2023-07-13T04:31:56;14.80;99.90
9033;DHT22;4551;53.164;8.210;2023-07-13T04:34:24;14.80;99.90
9033;DHT22;4551;53.164;8.210;2023-07-13T04:36:52;14.80;99.90
9033;DHT22;4551;53.164;8.210;2023-07-13T04:39:20;14.80;99.90
9033;DHT22;4551;53.164;8.210;2023-07-13T04:41:48;14.90;99.90
9033;DHT22;4551;53.164;8.210;2023-07-13T04:44:17;14.90;99.90
9033;DHT22;4551;53.164;8.210;2023-07-13T04:46:46;14.90;99.90
9033;DHT22;4551;53.164;8.210;2023-07-13T04:49:14;14.90;99.90
9033;DHT22;4551;53.164;8.210;2023-07-13T04:51:42;15.00;99.90
9033;DHT22;4551;53.164;8.210;2023-07-13T04:54:10;15.00;99.90
9033;DHT22;4551;53.164;8.210;2023-07-13T04:56:38;15.00;99.90
9033;DHT22;4551;53.164;8.210;2023-07-13T04:59:06;15.00;99.90
9033;DHT22;4551;53.164;8.210;2023-07-13T05:01:34;15.00;99.90
9033;DHT22;4551;53.164;8.210;2023-07-13T05:04:04;15.00;99.90
9033;DHT22;4551;53.164;8.210;2023-07-13T05:06:32;15.10;99.90
9033;DHT22;4551;53.164;8.210;2023-07-13T05:09:01;15.10;99.90
9033;DHT22;4551;53.164;8.210;2023-07-13T05:11:29;15.10;99.90
9033;DHT22;4551;53.164;8.210;2023-07-13T05:13:57;15.10;99.90
9033;DHT22;4551;53.164;8.210;2023-07-13T05:16:25;15.10;99.90
9033;DHT22;4551;53.164;8.210;2023-07-13T05:18:54;15.20;99.90
9033;DHT22;4551;53.164;8.210;2023-07-13T05:21:23;15.20;99.90
9033;DHT22;4551;53.164;8.210;2023-07-13T05:23:51;15.20;99.90
9033;DHT22;4551;53.164;8.210;2023-07-13T05:26:19;15.20;99.90
9033;DHT22;4551;53.164;8.210;2023-07-13T05:28:48;15.20;99.90
9033;DHT22;4551;53.164;8.210;2023-07-13T05:31:16;15.20;99.90
9033;DHT22;4551;53.164;8.210;2023-07-13T05:33:44;15.30;99.90
9033;DHT22;4551;53.164;8.210;2023-07-13T05:36:12;15.30;99.90
9033;DHT22;4551;53.164;8.210;2023-07-13T05:38:42;15.30;99.90
9033;DHT22;4551;53.164;8.210;2023-07-13T05:41:10;15.30;99.90
9033;DHT22;4551;53.164;8.210;2023-07-13T05:43:38;15.40;99.90
9033;DHT22;4551;53.164;8.210;2023-07-13T05:46:06;15.40;99.90
9033;DHT22;4551;53.164;8.210;2023-07-13T05:48:34;15.40;99.90
9033;DHT22;4551;53.164;8.210;2023-07-13T05:51:02;15.40;99.90
9033;DHT22;4551;53.164;8.210;2023-07-13T05:53:30;15.40;99.90
9033;DHT22;4551;53.164;8.210;2023-07-13T05:56:00;15.50;99.90
9033;DHT22;4551;53.164;8.210;2023-07-13T05:58:29;15.50;99.90
9033;DHT22;4551;53.164;8.210;2023-07-13T06:01:00;15.50;99.90
9033;DHT22;4551;53.164;8.210;2023-07-13T06:03:29;15.60;99.90
9033;DHT22;4551;53.164;8.210;2023-07-13T06:05:57;15.60;99.90
9033;DHT22;4551;53.164;8.210;2023-07-13T06:08:27;15.60;99.90
9033;DHT22;4551;53.164;8.210;2023-07-13T06:10:55;15.60;99.90
9033;DHT22;4551;53.164;8.210;2023-07-13T06:13:30;15.70;99.90
9033;DHT22;4551;53.164;8.210;2023-07-13T06:15:58;15.70;99.90
9033;DHT22;4551;53.164;8.210;2023-07-13T06:18:26;15.80;99.90
9033;DHT22;4551;53.164;8.210;2023-07-13T06:20:54;15.80;99.90
9033;DHT22;4551;53.164;8.210;2023-07-13T06:23:22;15.80;99.90
9033;DHT22;4551;53.164;8.210;2023-07-13T06:25:50;15.90;99.90
9033;DHT22;4551;53.164;8.210;2023-07-13T06:28:19;15.90;99.90
9033;DHT22;4551;53.164;8.210;2023-07-13T06:30:48;15.90;99.90
9033;DHT22;4551;53.164;8.210;2023-07-13T06:33:16;15.90;99.90
9033;DHT22;4551;53.164;8.210;2023-07-13T06:35:44;16.00;99.90
9033;DHT22;4551;53.164;8.210;2023-07-13T06:38:12;16.10;99.90
9033;DHT22;4551;53.164;8.210;2023-07-13T06:40:40;16.10;99.90
9033;DHT22;4551;53.164;8.210;2023-07-13T06:43:09;16.10;99.90
9033;DHT22;4551;53.164;8.210;2023-07-13T06:45:40;16.20;99.90
9033;DHT22;4551;53.164;8.210;2023-07-13T06:48:10;16.20;99.90
9033;DHT22;4551;53.164;8.210;2023-07-13T06:50:38;16.20;99.90
9033;DHT22;4551;53.164;8.210;2023-07-13T06:53:06;16.20;99.90
9033;DHT22;4551;53.164;8.210;2023-07-13T06:55:34;16.30;99.90
9033;DHT22;4551;53.164;8.210;2023-07-13T06:58:02;16.30;99.90
9033;DHT22;4551;53.164;8.210;2023-07-13T07:00:30;16.40;99.90
9033;DHT22;4551;53.164;8.210;2023-07-13T07:02:58;16.40;99.90
9033;DHT22;4551;53.164;8.210;2023-07-13T07:05:27;16.50;99.90
9033;DHT22;4551;53.164;8.210;2023-07-13T07:07:55;16.60;99.90
9033;DHT22;4551;53.164;8.210;2023-07-13T07:10:24;16.70;99.90
9033;DHT22;4551;53.164;8.210;2023-07-13T07:12:51;16.70;99.90
9033;DHT22;4551;53.164;8.210;2023-07-13T07:15:20;16.70;99.90
9033;DHT22;4551;53.164;8.210;2023-07-13T07:17:48;16.80;99.90
9033;DHT22;4551;53.164;8.210;2023-07-13T07:20:16;16.90;99.90
9033;DHT22;4551;53.164;8.210;2023-07-13T07:22:45;16.90;99.90
9033;DHT22;4551;53.164;8.210;2023-07-13T07:25:13;17.00;99.90
9033;DHT22;4551;53.164;8.210;2023-07-13T07:27:41;17.00;99.90
9033;DHT22;4551;53.164;8.210;2023-07-13T07:30:12;17.10;99.90
9033;DHT22;4551;53.164;8.210;2023-07-13T07:32:44;17.20;99.90
9033;DHT22;4551;53.164;8.210;2023-07-13T07:35:15;17.20;99.90
9033;DHT22;4551;53.164;8.210;2023-07-13T07:37:43;17.30;99.90
9033;DHT22;4551;53.164;8.210;2023-07-13T07:40:15;17.30;99.90
9033;DHT22;4551;53.164;8.210;2023-07-13T07:42:46;17.30;99.90
9033;DHT22;4551;53.164;8.210;2023-07-13T07:45:15;17.40;99.90
9033;DHT22;4551;53.164;8.210;2023-07-13T07:47:43;17.40;99.90
9033;DHT22;4551;53.164;8.210;2023-07-13T07:50:11;17.40;99.90
9033;DHT22;4551;53.164;8.210;2023-07-13T07:52:39;17.40;99.90
9033;DHT22;4551;53.164;8.210;2023-07-13T07:55:07;17.50;99.90
9033;DHT22;4551;53.164;8.210;2023-07-13T07:57:39;17.60;99.90
9033;DHT22;4551;53.164;8.210;2023-07-13T08:00:11;17.60;99.90
9033;DHT22;4551;53.164;8.210;2023-07-13T08:02:42;17.70;99.90
9033;DHT22;4551;53.164;8.210;2023-07-13T08:05:13;17.70;99.90
9033;DHT22;4551;53.164;8.210;2023-07-13T08:07:44;17.80;99.90
9033;DHT22;4551;53.164;8.210;2023-07-13T08:10:13;17.90;99.90
9033;DHT22;4551;53.164;8.210;2023-07-13T08:12:42;17.90;99.90
9033;DHT22;4551;53.164;8.210;2023-07-13T08:15:30;17.90;99.90
9033;DHT22;4551;53.164;8.210;2023-07-13T08:17:58;17.90;99.90
9033;DHT22;4551;53.164;8.210;2023-07-13T08:20:26;18.00;99.90
9033;DHT22;4551;53.164;8.210;2023-07-13T08:22:54;18.10;99.90
9033;DHT22;4551;53.164;8.210;2023-07-13T08:25:22;18.10;99.90
9033;DHT22;4551;53.164;8.210;2023-07-13T08:27:52;18.10;99.90
9033;DHT22;4551;53.164;8.210;2023-07-13T08:30:20;18.20;99.90
9033;DHT22;4551;53.164;8.210;2023-07-13T08:32:48;18.10;99.90
9033;DHT22;4551;53.164;8.210;2023-07-13T08:35:16;18.20;99.90
9033;DHT22;4551;53.164;8.210;2023-07-13T08:37:44;18.20;99.90
9033;DHT22;4551;53.164;8.210;2023-07-13T08:40:12;18.30;99.90
9033;DHT22;4551;53.164;8.210;2023-07-13T08:42:42;18.40;99.90
9033;DHT22;4551;53.164;8.210;2023-07-13T08:45:20;18.40;99.90
9033;DHT22;4551;53.164;8.210;2023-07-13T08:47:50;18.60;99.90
9033;DHT22;4551;53.164;8.210;2023-07-13T08:50:22;18.60;99.90
9033;DHT22;4551;53.164;8.210;2023-07-13T08:52:51;18.70;99.90
9033;DHT22;4551;53.164;8.210;2023-07-13T08:55:20;18.80;99.90
9033;DHT22;4551;53.164;8.210;2023-07-13T08:57:51;18.90;99.90
9033;DHT22;4551;53.164;8.210;2023-07-13T09:00:22;18.90;99.90
9033;DHT22;4551;53.164;8.210;2023-07-13T09:02:53;18.90;99.90
9033;DHT22;4551;53.164;8.210;2023-07-13T09:05:25;18.90;99.90
9033;DHT22;4551;53.164;8.210;2023-07-13T09:10:40;19.00;99.90
9033;DHT22;4551;53.164;8.210;2023-07-13T09:13:13;19.10;99.90
9033;DHT22;4551;53.164;8.210;2023-07-13T09:15:46;19.20;99.90
9033;DHT22;4551;53.164;8.210;2023-07-13T09:18:16;19.20;99.90
9033;DHT22;4551;53.164;8.210;2023-07-13T09:20:46;19.30;99.90
9033;DHT22;4551;53.164;8.210;2023-07-13T09:23:17;19.30;99.90
9033;DHT22;4551;53.164;8.210;2023-07-13T09:25:47;19.30;99.90
9033;DHT22;4551;53.164;8.210;2023-07-13T09:28:18;19.30;99.90
9033;DHT22;4551;53.164;8.210;2023-07-13T09:30:52;19.30;99.90
9033;DHT22;4551;53.164;8.210;2023-07-13T09:33:22;19.30;99.90
9033;DHT22;4551;53.164;8.210;2023-07-13T09:35:50;19.30;99.90
9033;DHT22;4551;53.164;8.210;2023-07-13T09:38:19;19.40;99.90
9033;DHT22;4551;53.164;8.210;2023-07-13T09:40:54;19.40;99.90
9033;DHT22;4551;53.164;8.210;2023-07-13T09:43:25;19.50;99.90
9033;DHT22;4551;53.164;8.210;2023-07-13T09:45:56;19.50;99.90
9033;DHT22;4551;53.164;8.210;2023-07-13T09:48:24;19.50;99.90
9033;DHT22;4551;53.164;8.210;2023-07-13T09:50:54;19.50;99.90
9033;DHT22;4551;53.164;8.210;2023-07-13T09:53:22;19.60;99.90
9033;DHT22;4551;53.164;8.210;2023-07-13T09:55:51;19.60;99.90
9033;DHT22;4551;53.164;8.210;2023-07-13T09:58:20;19.70;99.90
9033;DHT22;4551;53.164;8.210;2023-07-13T10:00:57;19.80;99.90
9033;DHT22;4551;53.164;8.210;2023-07-13T10:03:27;19.80;99.90
9033;DHT22;4551;53.164;8.210;2023-07-13T10:06:00;19.90;99.90
9033;DHT22;4551;53.164;8.210;2023-07-13T10:08:29;19.90;99.90
9033;DHT22;4551;53.164;8.210;2023-07-13T10:10:59;19.80;99.90
9033;DHT22;4551;53.164;8.210;2023-07-13T10:13:31;19.90;99.90
9033;DHT22;4551;53.164;8.210;2023-07-13T10:16:03;19.90;99.90
9033;DHT22;4551;53.164;8.210;2023-07-13T10:18:36;19.90;99.90
9033;DHT22;4551;53.164;8.210;2023-07-13T10:21:10;20.60;99.90
9033;DHT22;4551;53.164;8.210;2023-07-13T10:24:00;20.00;99.90
9033;DHT22;4551;53.164;8.210;2023-07-13T10:26:33;20.10;99.90
9033;DHT22;4551;53.164;8.210;2023-07-13T10:29:02;20.20;99.90
9033;DHT22;4551;53.164;8.210;2023-07-13T10:31:33;20.20;99.90
9033;DHT22;4551;53.164;8.210;2023-07-13T10:34:02;20.30;99.90
9033;DHT22;4551;53.164;8.210;2023-07-13T10:36:33;20.30;99.90
9033;DHT22;4551;53.164;8.210;2023-07-13T10:39:02;20.30;99.90
9033;DHT22;4551;53.164;8.210;2023-07-13T10:41:35;20.30;99.90
9033;DHT22;4551;53.164;8.210;2023-07-13T10:44:04;20.20;99.90
9033;DHT22;4551;53.164;8.210;2023-07-13T10:46:36;20.10;99.90
9033;DHT22;4551;53.164;8.210;2023-07-13T10:49:04;20.10;99.90
9033;DHT22;4551;53.164;8.210;2023-07-13T10:51:33;20.00;99.90
9033;DHT22;4551;53.164;8.210;2023-07-13T10:54:14;20.00;99.90
9033;DHT22;4551;53.164;8.210;2023-07-13T10:56:47;19.90;99.90
9033;DHT22;4551;53.164;8.210;2023-07-13T10:59:17;19.60;99.90
9033;DHT22;4551;53.164;8.210;2023-07-13T11:01:48;19.10;99.90
9033;DHT22;4551;53.164;8.210;2023-07-13T11:04:19;19.00;99.90
9033;DHT22;4551;53.164;8.210;2023-07-13T11:06:50;18.60;99.90
9033;DHT22;4551;53.164;8.210;2023-07-13T11:09:24;18.30;99.90
9033;DHT22;4551;53.164;8.210;2023-07-13T11:11:58;18.10;99.90
9033;DHT22;4551;53.164;8.210;2023-07-13T11:14:31;17.80;99.90
9033;DHT22;4551;53.164;8.210;2023-07-13T11:17:00;17.50;99.90
9033;DHT22;4551;53.164;8.210;2023-07-13T11:19:51;17.30;99.90
9033;DHT22;4551;53.164;8.210;2023-07-13T11:22:24;17.10;99.90
9033;DHT22;4551;53.164;8.210;2023-07-13T11:24:56;17.10;99.90
9033;DHT22;4551;53.164;8.210;2023-07-13T11:27:31;17.00;99.90
9033;DHT22;4551;53.164;8.210;2023-07-13T11:30:17;16.90;99.90
9033;DHT22;4551;53.164;8.210;2023-07-13T11:32:49;16.80;99.90
9033;DHT22;4551;53.164;8.210;2023-07-13T11:35:21;16.70;99.90
9033;DHT22;4551;53.164;8.210;2023-07-13T11:37:50;16.60;99.90
9033;DHT22;4551;53.164;8.210;2023-07-13T11:40:19;16.60;99.90
9033;DHT22;4551;53.164;8.210;2023-07-13T11:42:49;16.50;99.90
9033;DHT22;4551;53.164;8.210;2023-07-13T11:45:20;16.50;99.90
9033;DHT22;4551;53.164;8.210;2023-07-13T11:48:01;16.60;99.90
9033;DHT22;4551;53.164;8.210;2023-07-13T11:50:31;16.60;99.90
9033;DHT22;4551;53.164;8.210;2023-07-13T11:52:59;16.70;99.90
9033;DHT22;4551;53.164;8.210;2023-07-13T11:55:27;16.80;99.90
9033;DHT22;4551;53.164;8.210;2023-07-13T11:57:57;16.80;99.90
9033;DHT22;4551;53.164;8.210;2023-07-13T12:00:27;16.90;99.90
9033;DHT22;4551;53.164;8.210;2023-07-13T12:02:59;17.00;99.90
9033;DHT22;4551;53.164;8.210;2023-07-13T12:05:27;17.00;99.90
9033;DHT22;4551;53.164;8.210;2023-07-13T12:07:59;17.10;99.90
9033;DHT22;4551;53.164;8.210;2023-07-13T12:10:36;17.20;99.90
9033;DHT22;4551;53.164;8.210;2023-07-13T12:13:04;17.40;99.90
9033;DHT22;4551;53.164;8.210;2023-07-13T12:15:35;17.50;99.90
9033;DHT22;4551;53.164;8.210;2023-07-13T12:18:09;17.70;99.90
9033;DHT22;4551;53.164;8.210;2023-07-13T12:20:39;17.80;99.90
9033;DHT22;4551;53.164;8.210;2023-07-13T12:23:14;18.00;99.90
9033;DHT22;4551;53.164;8.210;2023-07-13T12:25:47;18.00;99.90
9033;DHT22;4551;53.164;8.210;2023-07-13T12:28:22;18.20;99.90
9033;DHT22;4551;53.164;8.210;2023-07-13T12:30:51;18.30;99.90
9033;DHT22;4551;53.164;8.210;2023-07-13T12:33:27;18.30;99.90
9033;DHT22;4551;53.164;8.210;2023-07-13T12:35:55;18.50;99.90
9033;DHT22;4551;53.164;8.210;2023-07-13T12:38:25;18.50;99.90
9033;DHT22;4551;53.164;8.210;2023-07-13T12:40:53;18.70;99.90
9033;DHT22;4551;53.164;8.210;2023-07-13T12:43:22;18.80;99.90
9033;DHT22;4551;53.164;8.210;2023-07-13T12:45:57;18.90;99.90
9033;DHT22;4551;53.164;8.210;2023-07-13T12:48:26;19.10;99.90
9033;DHT22;4551;53.164;8.210;2023-07-13T12:51:11;19.20;99.90
9033;DHT22;4551;53.164;8.210;2023-07-13T12:53:42;19.30;99.90
9033;DHT22;4551;53.164;8.210;2023-07-13T12:56:13;19.30;99.90
9033;DHT22;4551;53.164;8.210;2023-07-13T12:58:44;19.40;99.90
9033;DHT22;4551;53.164;8.210;2023-07-13T13:01:15;19.40;99.90
9033;DHT22;4551;53.164;8.210;2023-07-13T13:03:45;19.50;99.90
9033;DHT22;4551;53.164;8.210;2023-07-13T13:06:21;19.50;99.90
9033;DHT22;4551;53.164;8.210;2023-07-13T13:08:52;19.40;99.90
9033;DHT22;4551;53.164;8.210;2023-07-13T13:11:22;19.40;99.90
9033;DHT22;4551;53.164;8.210;2023-07-13T13:13:50;19.40;99.90
9033;DHT22;4551;53.164;8.210;2023-07-13T13:16:20;19.40;99.90
9033;DHT22;4551;53.164;8.210;2023-07-13T13:18:49;19.40;99.90
9033;DHT22;4551;53.164;8.210;2023-07-13T13:21:17;18.30;99.90
9033;DHT22;4551;53.164;8.210;2023-07-13T13:23:46;19.40;99.90
9033;DHT22;4551;53.164;8.210;2023-07-13T13:26:16;19.30;99.90
9033;DHT22;4551;53.164;8.210;2023-07-13T13:28:44;19.30;99.90
9033;DHT22;4551;53.164;8.210;2023-07-13T13:31:14;19.30;99.90
9033;DHT22;4551;53.164;8.210;2023-07-13T13:33:43;19.40;99.90
9033;DHT22;4551;53.164;8.210;2023-07-13T13:36:13;19.50;99.90
9033;DHT22;4551;53.164;8.210;2023-07-13T13:38:42;19.50;99.90
9033;DHT22;4551;53.164;8.210;2023-07-13T13:41:10;19.50;99.90
9033;DHT22;4551;53.164;8.210;2023-07-13T13:43:41;19.50;99.90
9033;DHT22;4551;53.164;8.210;2023-07-13T13:46:13;19.50;99.90
9033;DHT22;4551;53.164;8.210;2023-07-13T13:48:41;19.50;99.90
9033;DHT22;4551;53.164;8.210;2023-07-13T13:51:12;19.50;99.90
9033;DHT22;4551;53.164;8.210;2023-07-13T13:53:41;19.50;99.90
9033;DHT22;4551;53.164;8.210;2023-07-13T13:56:23;19.60;99.90
9033;DHT22;4551;53.164;8.210;2023-07-13T13:58:54;19.50;99.90
9033;DHT22;4551;53.164;8.210;2023-07-13T14:01:22;19.50;99.90
9033;DHT22;4551;53.164;8.210;2023-07-13T14:03:51;19.50;99.90
9033;DHT22;4551;53.164;8.210;2023-07-13T14:06:19;19.50;99.90
9033;DHT22;4551;53.164;8.210;2023-07-13T14:08:47;19.60;99.90
9033;DHT22;4551;53.164;8.210;2023-07-13T14:11:16;19.50;99.90
9033;DHT22;4551;53.164;8.210;2023-07-13T14:13:45;19.50;99.90
9033;DHT22;4551;53.164;8.210;2023-07-13T14:16:17;19.30;99.90
9033;DHT22;4551;53.164;8.210;2023-07-13T14:18:46;19.20;99.90
9033;DHT22;4551;53.164;8.210;2023-07-13T14:21:15;19.00;99.90
9033;DHT22;4551;53.164;8.210;2023-07-13T14:23:43;18.90;99.90
9033;DHT22;4551;53.164;8.210;2023-07-13T14:26:12;18.60;99.90
9033;DHT22;4551;53.164;8.210;2023-07-13T14:28:41;18.50;99.90
9033;DHT22;4551;53.164;8.210;2023-07-13T14:31:10;18.40;99.90
9033;DHT22;4551;53.164;8.210;2023-07-13T14:33:39;18.30;99.90
9033;DHT22;4551;53.164;8.210;2023-07-13T14:36:15;18.30;99.90
9033;DHT22;4551;53.164;8.210;2023-07-13T14:38:44;18.20;99.90
9033;DHT22;4551;53.164;8.210;2023-07-13T14:41:12;18.20;99.90
9033;DHT22;4551;53.164;8.210;2023-07-13T14:43:40;18.30;99.90
9033;DHT22;4551;53.164;8.210;2023-07-13T14:46:09;18.40;99.90
9033;DHT22;4551;53.164;8.210;2023-07-13T14:48:45;18.40;99.90
9033;DHT22;4551;53.164;8.210;2023-07-13T14:51:13;18.50;99.90
9033;DHT22;4551;53.164;8.210;2023-07-13T14:53:41;18.50;99.90
9033;DHT22;4551;53.164;8.210;2023-07-13T14:56:10;18.50;99.90
9033;DHT22;4551;53.164;8.210;2023-07-13T14:58:39;18.30;99.90
9033;DHT22;4551;53.164;8.210;2023-07-13T15:01:09;18.50;99.90
9033;DHT22;4551;53.164;8.210;2023-07-13T15:03:39;18.50;99.90
9033;DHT22;4551;53.164;8.210;2023-07-13T15:06:11;18.50;99.90
9033;DHT22;4551;53.164;8.210;2023-07-13T15:08:40;18.50;99.90
9033;DHT22;4551;53.164;8.210;2023-07-13T15:11:08;18.40;99.90
9033;DHT22;4551;53.164;8.210;2023-07-13T15:13:38;18.40;99.90
9033;DHT22;4551;53.164;8.210;2023-07-13T15:16:10;18.40;99.90
9033;DHT22;4551;53.164;8.210;2023-07-13T15:18:41;18.40;99.90
9033;DHT22;4551;53.164;8.210;2023-07-13T15:21:11;18.30;99.90
9033;DHT22;4551;53.164;8.210;2023-07-13T15:23:41;18.30;99.90
9033;DHT22;4551;53.164;8.210;2023-07-13T15:26:11;18.30;99.90
9033;DHT22;4551;53.164;8.210;2023-07-13T15:28:40;18.30;99.90
9033;DHT22;4551;53.164;8.210;2023-07-13T15:31:18;18.30;99.90
9033;DHT22;4551;53.164;8.210;2023-07-13T15:33:46;18.30;99.90
9033;DHT22;4551;53.164;8.210;2023-07-13T15:36:18;18.40;99.90
9033;DHT22;4551;53.164;8.210;2023-07-13T15:38:46;18.40;99.90
9033;DHT22;4551;53.164;8.210;2023-07-13T15:41:18;18.40;99.90
9033;DHT22;4551;53.164;8.210;2023-07-13T15:43:48;18.40;99.90
9033;DHT22;4551;53.164;8.210;2023-07-13T15:46:17;18.40;99.90
9033;DHT22;4551;53.164;8.210;2023-07-13T15:48:45;18.40;99.90
9033;DHT22;4551;53.164;8.210;2023-07-13T15:51:16;18.60;99.90
9033;DHT22;4551;53.164;8.210;2023-07-13T15:53:47;18.70;99.90
9033;DHT22;4551;53.164;8.210;2023-07-13T15:56:19;18.80;99.90
9033;DHT22;4551;53.164;8.210;2023-07-13T15:58:48;18.90;99.90
9033;DHT22;4551;53.164;8.210;2023-07-13T16:01:17;19.40;99.90
9033;DHT22;4551;53.164;8.210;2023-07-13T16:03:46;19.70;99.90
9033;DHT22;4551;53.164;8.210;2023-07-13T16:06:16;19.90;99.90
9033;DHT22;4551;53.164;8.210;2023-07-13T16:08:45;20.20;99.90
9033;DHT22;4551;53.164;8.210;2023-07-13T16:11:17;20.50;99.90
9033;DHT22;4551;53.164;8.210;2023-07-13T16:13:46;20.90;99.90
9033;DHT22;4551;53.164;8.210;2023-07-13T16:16:14;21.10;99.90
9033;DHT22;4551;53.164;8.210;2023-07-13T16:18:43;21.20;99.90
9033;DHT22;4551;53.164;8.210;2023-07-13T16:21:11;21.40;99.90
9033;DHT22;4551;53.164;8.210;2023-07-13T16:23:41;21.90;99.90